EBLGEBAW

Guest
Details From EBLG - Liege
To EBAW - Antwerp Deurne
Flight Number -
Tags generated
Created
Modified
Stats Distance 50 nm / 93 km
Max Altitude 6,400 ft / 1,951 m
Waypoints 3
Social Downloads 0
Likes 0
Share VATSIM

Download

Looking for another format? Having issues loading an existing format? Contact us
Advertisement - Login to hide

Notes

Basic altitude profile: - Ascent Rate: 2500ft/min - Ascent Speed: 250kts - Cruise Altitude: 35000ft - Cruise Speed: 420kts - Descent Rate: 1500ft/min - Descent Speed: 250kts Options: - Use NATs: yes - Use PACOTS: yes - Use low airways: yes - Use high airways: yes

Route

EBLG SOGRI EBAW

ID Type Via Altitude Latitude Longitude Leg Dist Tot Dist Heading (true) Name
O EBLG APT - 0 ft / 0 m 50.63812˚ 5.44314˚ - 0 nm - Liege
SOGRI FIX - 6,400 ft / 1,951 m 50.80640˚ 5.04514˚ 18 nm 18 nm 304° / 304° -
O EBAW APT - 0 ft / 0 m 51.19065˚ 4.46378˚ 31 nm 50 nm 317° / 316° Antwerp Deurne

Altitude Profile

Advertisement - Login to hide

EBLG

Details ICAO EBLG (LGG)
Name Liege
Region Belgium
Timezone Europe/Brussels (UTC+1.0)
Stats Elevation 645 ft / 197 m (AMSL)
Location 50.638120° 5.443140°
Runways 2
Magnetic Variation 1.428° E

METAR

EBLG 160150Z 33003KT 0400 R22L/1100D R22R/1900N R04R/0900D FG VV001 02/02 Q1005 NOSIG

Decode

TAF

TAF AMD EBLG 160034Z 1600/1706 29005KT 6000 SCT004 BKN008 TEMPO 1600/1603 0500 FG BKN001 PROB40 TEMPO 1603/1621 3000 SHRASN BKN004 SCT014CB

Decode

Departure Runways

ID Width Length Bearing (true) Bearing (mag) Surface Threshold Offset Overrun Length
05L 148 ft / 45 m 7,664 ft / 2,336 m 44.99° 43.56° Asphalt 151 ft / 46 m 0 ft / 0 m
05R 148 ft / 45 m 10,792 ft / 3,290 m 44.99° 43.56° Asphalt 151 ft / 46 m 0 ft / 0 m
23L 148 ft / 45 m 10,792 ft / 3,290 m 225.01° 223.58° Asphalt 151 ft / 46 m 0 ft / 0 m
23R 148 ft / 45 m 7,664 ft / 2,336 m 225.01° 223.58° Asphalt 151 ft / 46 m 0 ft / 0 m

EBAW

Details ICAO EBAW (ANR)
Name Antwerp Deurne
Region Belgium
Timezone Europe/Brussels (UTC+1.0)
Stats Elevation 39 ft / 12 m (AMSL)
Location 51.190654° 4.463776°
Runways 2
Magnetic Variation 1.099° E

METAR

EBAW 160150Z AUTO 28006KT 3800 -RA BR BKN018/// OVC020/// 03/02 Q1006

Decode

TAF

Not found

Destination Runways

ID Width Length Bearing (true) Bearing (mag) Surface Threshold Offset Overrun Length
11 148 ft / 45 m 4,931 ft / 1,503 m 109.83° 108.73° Asphalt 472 ft / 144 m 0 ft / 0 m
11L 164 ft / 50 m 3,317 ft / 1,011 m 109.83° 108.73° Grass 0 ft / 0 m 0 ft / 0 m
29 148 ft / 45 m 4,931 ft / 1,503 m 289.85° 288.75° Asphalt 400 ft / 122 m 0 ft / 0 m
29R 164 ft / 50 m 3,317 ft / 1,011 m 289.85° 288.75° Grass 0 ft / 0 m 0 ft / 0 m

Approach Navaids

Runway Type Ident Frequency Range Bearing (true) Bearing (mag) Slope Elevation
29 Localiser IAD 111.75 MHz 18 nm / 33 km 289.64° 288.54° - 39 ft / 12 m (AMSL)
29 Glidescope IAD 111.75 MHz 10 nm / 19 km 289.84° 288.74° 3.00° 39 ft / 12 m (AMSL)
29 DME IAD 111.75 MHz 18 nm / 33 km - - - 39 ft / 12 m (AMSL)